sensor_id;sensor_type;location;lat;lon;timestamp;temperature;humidity
16134;DHT22;8172;45.018;5.972;2023-05-10T07:47:37;11.30;73.60
16134;DHT22;8172;45.018;5.972;2023-05-10T07:52:49;11.30;73.40
16134;DHT22;8172;45.018;5.972;2023-05-10T07:58:01;11.40;73.30
16134;DHT22;8172;45.018;5.972;2023-05-10T08:03:10;11.50;72.80
16134;DHT22;8172;45.018;5.972;2023-05-10T08:08:19;11.60;72.50
16134;DHT22;8172;45.018;5.972;2023-05-10T08:13:32;11.70;72.60
16134;DHT22;8172;45.018;5.972;2023-05-10T08:18:42;11.80;72.40
16134;DHT22;8172;45.018;5.972;2023-05-10T08:23:51;11.90;72.20
16134;DHT22;8172;45.018;5.972;2023-05-10T08:29:02;12.10;71.50
16134;DHT22;8172;45.018;5.972;2023-05-10T08:34:11;12.10;70.90
16134;DHT22;8172;45.018;5.972;2023-05-10T08:39:21;12.20;70.90
16134;DHT22;8172;45.018;5.972;2023-05-10T08:44:34;12.20;71.00
16134;DHT22;8172;45.018;5.972;2023-05-10T08:49:44;12.40;70.50
16134;DHT22;8172;45.018;5.972;2023-05-10T08:54:55;12.50;70.50
16134;DHT22;8172;45.018;5.972;2023-05-10T09:00:06;12.70;71.20
16134;DHT22;8172;45.018;5.972;2023-05-10T09:05:16;12.90;71.30
16134;DHT22;8172;45.018;5.972;2023-05-10T09:10:26;13.10;70.00
16134;DHT22;8172;45.018;5.972;2023-05-10T09:15:36;13.00;69.40
16134;DHT22;8172;45.018;5.972;2023-05-10T09:20:45;13.00;69.30
16134;DHT22;8172;45.018;5.972;2023-05-10T09:31:04;13.20;69.40
16134;DHT22;8172;45.018;5.972;2023-05-10T09:36:12;13.30;69.30
16134;DHT22;8172;45.018;5.972;2023-05-10T09:41:23;13.30;68.60
16134;DHT22;8172;45.018;5.972;2023-05-10T09:46:34;13.30;68.50
16134;DHT22;8172;45.018;5.972;2023-05-10T09:51:44;13.30;68.90
16134;DHT22;8172;45.018;5.972;2023-05-10T09:56:52;13.40;68.70
16134;DHT22;8172;45.018;5.972;2023-05-10T10:02:01;13.50;68.80
16134;DHT22;8172;45.018;5.972;2023-05-10T10:07:09;13.70;68.80
16134;DHT22;8172;45.018;5.972;2023-05-10T10:12:17;13.80;67.80
16134;DHT22;8172;45.018;5.972;2023-05-10T10:17:28;13.90;66.90
16134;DHT22;8172;45.018;5.972;2023-05-10T10:22:38;13.90;67.10
16134;DHT22;8172;45.018;5.972;2023-05-10T10:38:09;14.20;66.10
16134;DHT22;8172;45.018;5.972;2023-05-10T10:48:27;14.30;66.30
16134;DHT22;8172;45.018;5.972;2023-05-10T10:53:36;14.30;65.80
16134;DHT22;8172;45.018;5.972;2023-05-10T10:58:49;14.30;65.40
16134;DHT22;8172;45.018;5.972;2023-05-10T11:09:08;14.50;65.10
16134;DHT22;8172;45.018;5.972;2023-05-10T11:14:20;14.60;65.30
16134;DHT22;8172;45.018;5.972;2023-05-10T11:19:29;14.70;63.90
16134;DHT22;8172;45.018;5.972;2023-05-10T11:24:39;14.70;64.20
16134;DHT22;8172;45.018;5.972;2023-05-10T11:29:51;14.80;64.40
16134;DHT22;8172;45.018;5.972;2023-05-10T11:35:00;14.90;64.40
16134;DHT22;8172;45.018;5.972;2023-05-10T11:40:12;14.90;62.20
16134;DHT22;8172;45.018;5.972;2023-05-10T11:45:25;14.80;63.20
16134;DHT22;8172;45.018;5.972;2023-05-10T11:50:36;14.70;60.00
16134;DHT22;8172;45.018;5.972;2023-05-10T11:55:45;14.50;62.20
16134;DHT22;8172;45.018;5.972;2023-05-10T12:00:54;14.60;60.50
16134;DHT22;8172;45.018;5.972;2023-05-10T12:06:04;14.40;60.40
16134;DHT22;8172;45.018;5.972;2023-05-10T12:11:13;14.20;60.70
16134;DHT22;8172;45.018;5.972;2023-05-10T12:16:24;14.10;60.90
16134;DHT22;8172;45.018;5.972;2023-05-10T12:21:33;14.20;61.60
16134;DHT22;8172;45.018;5.972;2023-05-10T12:26:41;14.40;60.70
16134;DHT22;8172;45.018;5.972;2023-05-10T12:31:52;14.40;59.20
16134;DHT22;8172;45.018;5.972;2023-05-10T12:37:02;14.40;60.10
16134;DHT22;8172;45.018;5.972;2023-05-10T12:42:11;14.60;59.90
16134;DHT22;8172;45.018;5.972;2023-05-10T12:47:19;14.70;59.60
16134;DHT22;8172;45.018;5.972;2023-05-10T12:52:29;14.80;58.50
16134;DHT22;8172;45.018;5.972;2023-05-10T12:57:39;14.90;59.40
16134;DHT22;8172;45.018;5.972;2023-05-10T13:02:49;14.90;59.00
16134;DHT22;8172;45.018;5.972;2023-05-10T13:08:00;15.00;58.50
16134;DHT22;8172;45.018;5.972;2023-05-10T13:13:09;15.00;58.90
16134;DHT22;8172;45.018;5.972;2023-05-10T13:18:17;15.10;59.40
16134;DHT22;8172;45.018;5.972;2023-05-10T13:23:25;15.20;58.70
16134;DHT22;8172;45.018;5.972;2023-05-10T13:28:33;15.20;57.50
16134;DHT22;8172;45.018;5.972;2023-05-10T13:33:41;15.10;56.90
16134;DHT22;8172;45.018;5.972;2023-05-10T13:38:50;15.10;57.00
16134;DHT22;8172;45.018;5.972;2023-05-10T13:43:58;15.20;55.40
16134;DHT22;8172;45.018;5.972;2023-05-10T13:49:08;15.00;55.60
16134;DHT22;8172;45.018;5.972;2023-05-10T13:54:17;15.00;57.10
16134;DHT22;8172;45.018;5.972;2023-05-10T13:59:26;15.20;55.90
16134;DHT22;8172;45.018;5.972;2023-05-10T14:04:35;15.20;56.00
16134;DHT22;8172;45.018;5.972;2023-05-10T14:09:43;15.30;56.40
16134;DHT22;8172;45.018;5.972;2023-05-10T14:14:52;15.40;56.80
16134;DHT22;8172;45.018;5.972;2023-05-10T14:20:00;15.60;57.50
16134;DHT22;8172;45.018;5.972;2023-05-10T14:25:09;15.70;56.00
16134;DHT22;8172;45.018;5.972;2023-05-10T14:30:17;15.70;55.50
16134;DHT22;8172;45.018;5.972;2023-05-10T14:35:25;15.50;56.00
16134;DHT22;8172;45.018;5.972;2023-05-10T14:40:35;15.60;57.00
16134;DHT22;8172;45.018;5.972;2023-05-10T14:45:47;15.90;57.00
16134;DHT22;8172;45.018;5.972;2023-05-10T14:50:56;16.10;56.90
16134;DHT22;8172;45.018;5.972;2023-05-10T14:56:04;16.10;56.50
16134;DHT22;8172;45.018;5.972;2023-05-10T15:01:12;16.20;55.60
16134;DHT22;8172;45.018;5.972;2023-05-10T15:06:23;16.20;56.50
16134;DHT22;8172;45.018;5.972;2023-05-10T15:11:32;16.40;56.70
16134;DHT22;8172;45.018;5.972;2023-05-10T15:16:42;16.30;54.20
16134;DHT22;8172;45.018;5.972;2023-05-10T15:21:52;16.10;54.20
16134;DHT22;8172;45.018;5.972;2023-05-10T15:27:02;16.00;54.50
16134;DHT22;8172;45.018;5.972;2023-05-10T15:32:11;15.80;53.70
16134;DHT22;8172;45.018;5.972;2023-05-10T15:37:20;15.60;53.70
16134;DHT22;8172;45.018;5.972;2023-05-10T15:42:31;15.40;54.50
16134;DHT22;8172;45.018;5.972;2023-05-10T15:47:39;15.20;53.50
16134;DHT22;8172;45.018;5.972;2023-05-10T15:52:49;15.00;54.40
16134;DHT22;8172;45.018;5.972;2023-05-10T15:57:57;14.90;54.80
16134;DHT22;8172;45.018;5.972;2023-05-10T16:03:05;14.80;54.80
16134;DHT22;8172;45.018;5.972;2023-05-10T16:08:14;14.60;54.50
16134;DHT22;8172;45.018;5.972;2023-05-10T16:13:22;14.40;54.80
16134;DHT22;8172;45.018;5.972;2023-05-10T16:18:30;14.30;54.80
16134;DHT22;8172;45.018;5.972;2023-05-10T16:23:39;14.20;54.70
16134;DHT22;8172;45.018;5.972;2023-05-10T16:28:47;14.00;54.80
16134;DHT22;8172;45.018;5.972;2023-05-10T16:33:55;13.90;54.90
16134;DHT22;8172;45.018;5.972;2023-05-10T16:39:03;13.70;54.80
16134;DHT22;8172;45.018;5.972;2023-05-10T16:44:11;13.50;55.50
16134;DHT22;8172;45.018;5.972;2023-05-10T16:49:20;13.40;55.60
16134;DHT22;8172;45.018;5.972;2023-05-10T16:54:30;13.40;55.80
16134;DHT22;8172;45.018;5.972;2023-05-10T16:59:39;13.30;55.80
16134;DHT22;8172;45.018;5.972;2023-05-10T17:04:48;13.20;55.80
16134;DHT22;8172;45.018;5.972;2023-05-10T17:09:57;13.20;55.80
16134;DHT22;8172;45.018;5.972;2023-05-10T17:15:08;13.10;55.90
16134;DHT22;8172;45.018;5.972;2023-05-10T17:20:17;13.00;56.40
16134;DHT22;8172;45.018;5.972;2023-05-10T17:25:26;13.00;56.60
16134;DHT22;8172;45.018;5.972;2023-05-10T17:30:35;12.80;56.70
16134;DHT22;8172;45.018;5.972;2023-05-10T17:35:46;12.70;57.40
16134;DHT22;8172;45.018;5.972;2023-05-10T17:40:58;12.60;57.40
16134;DHT22;8172;45.018;5.972;2023-05-10T17:46:07;12.50;57.10
16134;DHT22;8172;45.018;5.972;2023-05-10T17:51:17;12.40;57.60
16134;DHT22;8172;45.018;5.972;2023-05-10T17:56:27;12.40;57.80
16134;DHT22;8172;45.018;5.972;2023-05-10T18:01:35;12.30;57.80
16134;DHT22;8172;45.018;5.972;2023-05-10T18:06:46;12.30;58.00
16134;DHT22;8172;45.018;5.972;2023-05-10T18:11:56;12.30;58.00
16134;DHT22;8172;45.018;5.972;2023-05-10T18:17:04;12.30;58.00
16134;DHT22;8172;45.018;5.972;2023-05-10T18:22:12;12.20;58.10
16134;DHT22;8172;45.018;5.972;2023-05-10T18:27:21;12.20;58.10
16134;DHT22;8172;45.018;5.972;2023-05-10T18:32:31;12.10;58.20
16134;DHT22;8172;45.018;5.972;2023-05-10T18:37:40;12.00;58.40
16134;DHT22;8172;45.018;5.972;2023-05-10T18:42:50;12.00;58.60
16134;DHT22;8172;45.018;5.972;2023-05-10T18:48:00;11.90;58.80
16134;DHT22;8172;45.018;5.972;2023-05-10T18:53:08;11.90;58.80
16134;DHT22;8172;45.018;5.972;2023-05-10T18:58:17;11.80;59.00
16134;DHT22;8172;45.018;5.972;2023-05-10T19:03:27;11.70;58.90
16134;DHT22;8172;45.018;5.972;2023-05-10T19:08:37;11.70;59.00
16134;DHT22;8172;45.018;5.972;2023-05-10T19:13:46;11.60;59.00
16134;DHT22;8172;45.018;5.972;2023-05-10T19:18:55;11.60;59.00
16134;DHT22;8172;45.018;5.972;2023-05-10T19:24:05;11.50;58.80
16134;DHT22;8172;45.018;5.972;2023-05-10T19:29:14;11.50;58.90
16134;DHT22;8172;45.018;5.972;2023-05-10T19:34:23;11.50;59.10
16134;DHT22;8172;45.018;5.972;2023-05-10T19:39:34;11.40;59.10
16134;DHT22;8172;45.018;5.972;2023-05-10T19:44:42;11.30;59.30
16134;DHT22;8172;45.018;5.972;2023-05-10T19:49:51;11.30;59.40
16134;DHT22;8172;45.018;5.972;2023-05-10T19:55:01;11.30;59.40
16134;DHT22;8172;45.018;5.972;2023-05-10T20:00:13;11.20;59.50
16134;DHT22;8172;45.018;5.972;2023-05-10T20:05:23;11.20;59.60
16134;DHT22;8172;45.018;5.972;2023-05-10T20:10:37;11.10;59.60
16134;DHT22;8172;45.018;5.972;2023-05-10T20:15:49;11.10;59.60
16134;DHT22;8172;45.018;5.972;2023-05-10T20:21:00;11.00;59.70
16134;DHT22;8172;45.018;5.972;2023-05-10T20:26:10;11.00;59.70
16134;DHT22;8172;45.018;5.972;2023-05-10T20:31:19;11.00;59.80
16134;DHT22;8172;45.018;5.972;2023-05-10T20:36:28;10.90;59.80
16134;DHT22;8172;45.018;5.972;2023-05-10T20:41:37;10.90;59.90
16134;DHT22;8172;45.018;5.972;2023-05-10T20:46:46;10.90;59.90
16134;DHT22;8172;45.018;5.972;2023-05-10T20:51:55;10.80;60.00
16134;DHT22;8172;45.018;5.972;2023-05-10T20:57:04;10.80;60.00
16134;DHT22;8172;45.018;5.972;2023-05-10T21:02:11;10.70;60.00
16134;DHT22;8172;45.018;5.972;2023-05-10T21:07:19;10.70;60.00
16134;DHT22;8172;45.018;5.972;2023-05-10T21:12:26;10.70;60.10
16134;DHT22;8172;45.018;5.972;2023-05-10T21:17:35;10.60;60.10
16134;DHT22;8172;45.018;5.972;2023-05-10T21:22:43;10.60;60.10
16134;DHT22;8172;45.018;5.972;2023-05-10T21:27:52;10.50;60.20
16134;DHT22;8172;45.018;5.972;2023-05-10T21:33:02;10.50;60.20
16134;DHT22;8172;45.018;5.972;2023-05-10T21:38:11;10.40;60.20
16134;DHT22;8172;45.018;5.972;2023-05-10T21:43:19;10.30;60.50
16134;DHT22;8172;45.018;5.972;2023-05-10T21:48:27;10.30;60.50
16134;DHT22;8172;45.018;5.972;2023-05-10T21:53:35;10.20;60.60
16134;DHT22;8172;45.018;5.972;2023-05-10T21:58:44;10.20;60.70
16134;DHT22;8172;45.018;5.972;2023-05-10T22:03:51;10.20;60.90
16134;DHT22;8172;45.018;5.972;2023-05-10T22:08:59;10.20;61.00
16134;DHT22;8172;45.018;5.972;2023-05-10T22:14:06;10.10;60.90
16134;DHT22;8172;45.018;5.972;2023-05-10T22:19:14;10.10;61.00
16134;DHT22;8172;45.018;5.972;2023-05-10T22:24:22;10.10;61.00
16134;DHT22;8172;45.018;5.972;2023-05-10T22:29:31;10.10;61.00
16134;DHT22;8172;45.018;5.972;2023-05-10T22:34:39;10.00;61.10
16134;DHT22;8172;45.018;5.972;2023-05-10T22:39:49;10.00;61.00
16134;DHT22;8172;45.018;5.972;2023-05-10T22:44:57;9.90;61.00
16134;DHT22;8172;45.018;5.972;2023-05-10T22:50:05;9.90;61.10
16134;DHT22;8172;45.018;5.972;2023-05-10T22:55:13;9.90;61.20
16134;DHT22;8172;45.018;5.972;2023-05-10T23:00:21;9.90;61.30
16134;DHT22;8172;45.018;5.972;2023-05-10T23:05:30;9.90;61.40
16134;DHT22;8172;45.018;5.972;2023-05-10T23:10:38;9.80;61.50
16134;DHT22;8172;45.018;5.972;2023-05-10T23:15:45;9.90;61.50
16134;DHT22;8172;45.018;5.972;2023-05-10T23:20:55;9.90;61.40
16134;DHT22;8172;45.018;5.972;2023-05-10T23:26:03;9.90;61.20
16134;DHT22;8172;45.018;5.972;2023-05-10T23:31:11;9.90;61.00
16134;DHT22;8172;45.018;5.972;2023-05-10T23:36:19;9.90;60.90
16134;DHT22;8172;45.018;5.972;2023-05-10T23:41:28;9.90;60.80
16134;DHT22;8172;45.018;5.972;2023-05-10T23:46:36;9.90;60.70
16134;DHT22;8172;45.018;5.972;2023-05-10T23:51:44;9.90;60.60
16134;DHT22;8172;45.018;5.972;2023-05-10T23:56:52;9.80;60.60
